createdAt,value
2022-08-03T00:00:48.314Z,18.23
2022-08-03T00:06:09.298Z,18.25
2022-08-03T00:11:30.202Z,18.30
2022-08-03T00:16:50.578Z,18.31
2022-08-03T00:22:11.580Z,18.30
2022-08-03T00:27:32.675Z,18.31
2022-08-03T00:32:54.373Z,18.32
2022-08-03T00:38:15.539Z,18.37
2022-08-03T00:43:36.202Z,18.39
2022-08-03T00:48:56.984Z,18.40
2022-08-03T00:54:17.936Z,18.40
2022-08-03T00:59:39.270Z,18.43
2022-08-03T01:05:00.212Z,18.42
2022-08-03T01:11:01.868Z,18.40
2022-08-03T01:16:37.055Z,18.36
2022-08-03T01:22:00.816Z,18.36
2022-08-03T01:27:28.612Z,18.38
2022-08-03T01:33:01.854Z,18.41
2022-08-03T01:38:28.818Z,18.41
2022-08-03T01:44:27.242Z,18.42
2022-08-03T01:49:37.165Z,18.42
2022-08-03T01:55:00.072Z,18.43
2022-08-03T02:00:21.299Z,18.42
2022-08-03T02:05:47.248Z,18.46
2022-08-03T02:11:08.328Z,18.47
2022-08-03T02:16:30.939Z,18.44
2022-08-03T02:21:57.217Z,18.44
2022-08-03T02:27:24.379Z,18.43
2022-08-03T02:32:54.482Z,18.42
2022-08-03T02:38:19.306Z,18.42
2022-08-03T02:44:05.946Z,18.43
2022-08-03T02:49:40.979Z,18.42
2022-08-03T02:55:05.626Z,18.39
2022-08-03T03:00:27.494Z,18.42
2022-08-03T03:05:55.339Z,18.43
2022-08-03T03:11:20.926Z,18.46
2022-08-03T03:16:44.503Z,18.45
2022-08-03T03:22:12.581Z,18.47
2022-08-03T03:27:34.088Z,18.45
2022-08-03T03:32:55.301Z,18.45
2022-08-03T03:38:16.352Z,18.44
2022-08-03T03:43:36.748Z,18.43
2022-08-03T03:48:57.842Z,18.40
2022-08-03T03:54:18.496Z,18.38
2022-08-03T03:59:40.603Z,18.36
2022-08-03T04:05:20.270Z,18.32
2022-08-03T04:10:59.022Z,18.33
2022-08-03T04:16:24.284Z,18.38
2022-08-03T04:21:49.951Z,18.40
2022-08-03T04:27:14.093Z,18.42
2022-08-03T04:32:37.295Z,18.43
2022-08-03T04:38:02.495Z,18.41
2022-08-03T04:43:25.481Z,18.44
2022-08-03T04:48:46.225Z,18.47
2022-08-03T04:54:07.513Z,18.48
2022-08-03T04:59:28.110Z,18.49
2022-08-03T05:04:49.238Z,18.52
2022-08-03T05:10:16.340Z,18.54
2022-08-03T05:15:42.849Z,18.53
2022-08-03T05:21:04.992Z,18.52
2022-08-03T05:26:25.975Z,18.52
2022-08-03T05:31:47.617Z,18.56
2022-08-03T05:37:08.720Z,18.59
2022-08-03T05:42:29.981Z,18.61
2022-08-03T05:47:51.070Z,18.66
2022-08-03T05:53:12.105Z,18.66
2022-08-03T05:58:32.546Z,18.70
2022-08-03T06:03:54.220Z,18.73
2022-08-03T06:09:15.300Z,18.78
2022-08-03T06:14:36.106Z,18.86
2022-08-03T06:19:56.999Z,18.91
2022-08-03T06:25:17.781Z,18.99
2022-08-03T06:30:41.877Z,18.96
2022-08-03T06:36:03.068Z,18.92
2022-08-03T06:41:23.696Z,18.92
2022-08-03T06:46:44.447Z,18.95
2022-08-03T06:52:16.647Z,18.98
2022-08-03T06:57:46.298Z,19.11
2022-08-03T07:03:07.060Z,19.22
2022-08-03T07:08:33.809Z,19.42
2022-08-03T07:13:56.395Z,19.52
2022-08-03T07:19:16.811Z,19.68
2022-08-03T07:24:37.806Z,19.85
2022-08-03T07:30:00.963Z,19.95
2022-08-03T07:35:25.057Z,19.94
2022-08-03T07:40:46.508Z,19.95
2022-08-03T07:46:07.217Z,19.89
2022-08-03T07:51:27.959Z,19.79
2022-08-03T07:56:48.904Z,19.84
2022-08-03T08:02:09.563Z,20.10
2022-08-03T08:07:29.939Z,20.33
2022-08-03T08:12:50.370Z,20.46
2022-08-03T08:18:11.228Z,20.54
2022-08-03T08:23:42.558Z,20.35
2022-08-03T08:29:05.234Z,20.15
2022-08-03T08:34:25.883Z,19.97
2022-08-03T08:39:46.688Z,20.01
2022-08-03T08:45:09.260Z,20.31
2022-08-03T08:50:30.392Z,20.22
2022-08-03T08:55:58.203Z,20.30
2022-08-03T09:01:21.766Z,20.84
2022-08-03T09:06:53.716Z,21.62
2022-08-03T09:12:40.921Z,22.27
2022-08-03T09:18:04.333Z,22.30
2022-08-03T09:24:00.719Z,22.61
2022-08-03T09:29:15.374Z,22.52
2022-08-03T09:34:36.379Z,22.67
2022-08-03T09:39:57.337Z,22.80
2022-08-03T09:50:58.487Z,22.34
2022-08-03T09:56:40.262Z,22.16
2022-08-03T10:02:01.870Z,22.24
2022-08-03T10:07:24.773Z,22.22
2022-08-03T10:12:45.348Z,22.38
2022-08-03T10:18:07.509Z,22.38
2022-08-03T10:23:34.929Z,22.08
2022-08-03T10:28:59.566Z,22.34
2022-08-03T10:34:24.168Z,23.28
2022-08-03T10:39:53.820Z,23.49
2022-08-03T10:45:25.374Z,23.14
2022-08-03T10:50:48.502Z,22.82
2022-08-03T10:56:50.564Z,22.80
2022-08-03T11:02:11.019Z,24.18
2022-08-03T11:07:31.821Z,25.24
2022-08-03T11:13:07.274Z,24.92
2022-08-03T11:18:28.543Z,24.33
2022-08-03T11:24:03.404Z,24.52
2022-08-03T11:29:30.906Z,25.51
2022-08-03T11:35:07.265Z,26.49
2022-08-03T11:40:53.744Z,26.49
2022-08-03T11:46:28.590Z,26.68
2022-08-03T11:51:54.459Z,27.13
2022-08-03T11:58:58.057Z,26.90
2022-08-03T12:03:13.630Z,26.98
2022-08-03T12:08:34.353Z,27.20
2022-08-03T12:14:45.074Z,28.18
2022-08-03T12:19:44.894Z,28.10
2022-08-03T12:25:09.587Z,27.51
2022-08-03T12:30:30.247Z,27.20
2022-08-03T12:36:05.981Z,27.91
2022-08-03T12:41:35.136Z,28.51
2022-08-03T12:46:58.854Z,28.17
2022-08-03T12:52:21.320Z,27.85
2022-08-03T12:57:42.265Z,28.00
2022-08-03T13:08:48.352Z,28.20
2022-08-03T13:14:09.468Z,28.19
2022-08-03T13:19:38.458Z,28.32
2022-08-03T13:25:01.064Z,28.00
2022-08-03T13:30:29.883Z,26.99
2022-08-03T13:35:50.935Z,27.19
2022-08-03T13:41:15.415Z,26.12
2022-08-03T13:46:36.615Z,26.43
2022-08-03T13:51:57.604Z,26.45
2022-08-03T13:58:03.563Z,26.64
2022-08-03T14:03:07.967Z,26.73
2022-08-03T14:08:33.176Z,26.07
2022-08-03T14:13:53.921Z,25.08
2022-08-03T14:19:15.801Z,24.81
2022-08-03T14:24:42.264Z,24.09
2022-08-03T14:30:03.803Z,23.62
2022-08-03T14:35:24.139Z,23.36
2022-08-03T14:40:44.657Z,23.28
2022-08-03T14:46:05.063Z,22.80
2022-08-03T14:51:25.584Z,22.62
2022-08-03T14:56:52.424Z,22.92
2022-08-03T15:02:21.242Z,23.08
2022-08-03T15:07:44.062Z,23.84
2022-08-03T15:13:04.398Z,24.36
2022-08-03T15:18:24.810Z,26.38
2022-08-03T15:23:45.567Z,26.91
2022-08-03T15:29:05.999Z,25.51
2022-08-03T15:34:26.589Z,25.05
2022-08-03T15:39:59.176Z,23.22
2022-08-03T15:45:22.571Z,22.59
2022-08-03T15:50:43.768Z,22.67
2022-08-03T15:56:09.802Z,22.88
2022-08-03T16:01:32.800Z,22.75
2022-08-03T16:06:53.228Z,21.75
2022-08-03T16:12:16.046Z,21.43
2022-08-03T16:17:38.780Z,23.62
2022-08-03T16:22:59.086Z,24.82
2022-08-03T16:28:23.018Z,24.41
2022-08-03T16:33:43.940Z,24.32
2022-08-03T16:39:04.569Z,25.67
2022-08-03T16:44:25.379Z,26.88
2022-08-03T16:49:54.876Z,27.41
2022-08-03T16:55:42.874Z,25.68
2022-08-03T17:00:57.253Z,24.84
2022-08-03T17:06:19.433Z,23.77
2022-08-03T17:11:47.254Z,23.02
2022-08-03T17:17:47.512Z,22.57
2022-08-03T17:23:35.671Z,22.24
2022-08-03T17:29:02.325Z,21.85
2022-08-03T17:34:34.062Z,22.05
2022-08-03T17:39:59.297Z,21.93
2022-08-03T17:45:20.643Z,21.83
2022-08-03T17:50:50.443Z,21.62
2022-08-03T17:56:40.293Z,21.19
2022-08-03T18:02:30.767Z,20.77
2022-08-03T18:07:59.192Z,20.29
2022-08-03T18:13:24.301Z,20.05
2022-08-03T18:18:45.023Z,19.87
2022-08-03T18:24:11.065Z,19.70
2022-08-03T18:29:31.623Z,19.64
2022-08-03T18:34:56.448Z,19.75
2022-08-03T18:40:20.736Z,19.79
2022-08-03T18:45:56.336Z,19.71
2022-08-03T18:51:24.129Z,19.61
2022-08-03T18:57:00.324Z,19.37
2022-08-03T19:02:48.980Z,19.24
2022-08-03T19:08:16.961Z,19.21
2022-08-03T19:13:50.921Z,19.16
2022-08-03T19:19:14.510Z,19.11
2022-08-03T19:24:38.608Z,19.07
2022-08-03T19:30:04.089Z,18.95
2022-08-03T19:35:46.692Z,18.89
2022-08-03T19:41:13.898Z,18.77
2022-08-03T19:46:54.048Z,18.76
2022-08-03T19:52:20.617Z,18.73
2022-08-03T19:57:45.628Z,18.77
2022-08-03T20:03:19.671Z,18.80
2022-08-03T20:08:44.173Z,18.76
2022-08-03T20:14:05.649Z,18.69
2022-08-03T20:19:32.675Z,18.62
2022-08-03T20:24:56.912Z,18.55
2022-08-03T20:30:18.598Z,18.52
2022-08-03T20:35:49.381Z,18.49
2022-08-03T20:41:10.160Z,18.50
2022-08-03T20:46:46.445Z,18.51
2022-08-03T20:52:18.407Z,18.54
2022-08-03T20:57:40.337Z,18.53
2022-08-03T21:03:01.307Z,18.53
2022-08-03T21:14:20.253Z,18.42
2022-08-03T21:19:51.989Z,18.41
2022-08-03T21:25:28.924Z,18.35
2022-08-03T21:30:57.154Z,18.30
2022-08-03T21:36:35.015Z,18.19
2022-08-03T21:42:02.802Z,18.10
2022-08-03T21:47:29.289Z,17.98
2022-08-03T21:52:54.703Z,17.90
2022-08-03T21:58:20.533Z,17.84
2022-08-03T22:03:54.111Z,17.79
2022-08-03T22:09:20.250Z,17.78
2022-08-03T22:14:41.166Z,17.78
2022-08-03T22:20:02.496Z,17.78
2022-08-03T22:25:29.183Z,17.76
2022-08-03T22:30:52.022Z,17.75
2022-08-03T22:36:13.531Z,17.72
2022-08-03T22:41:34.223Z,17.70
2022-08-03T22:46:56.109Z,17.68
2022-08-03T22:52:16.902Z,17.69
2022-08-03T22:57:37.622Z,17.64
2022-08-03T23:03:01.929Z,17.62
2022-08-03T23:08:25.193Z,17.62
2022-08-03T23:13:52.144Z,17.61
2022-08-03T23:19:17.277Z,17.57
2022-08-03T23:24:46.223Z,17.53
2022-08-03T23:30:08.218Z,17.51
2022-08-03T23:36:22.679Z,17.50
2022-08-03T23:41:29.983Z,17.48
2022-08-03T23:46:50.601Z,17.47
2022-08-03T23:52:32.009Z,17.45
2022-08-03T23:58:11.088Z,17.46
